sensor_id;sensor_type;location;lat;lon;timestamp;P1;durP1;ratioP1;P2;durP2;ratioP2
52184;SDS011;38160;52.876;18.778;2022-09-27T00:05:24;44.30;;;33.20;;
52184;SDS011;38160;52.876;18.778;2022-09-27T00:08:39;51.02;;;36.68;;
52184;SDS011;38160;52.876;18.778;2022-09-27T00:11:16;56.80;;;36.75;;
52184;SDS011;38160;52.876;18.778;2022-09-27T00:16:30;60.92;;;36.77;;
52184;SDS011;38160;52.876;18.778;2022-09-27T00:19:05;55.52;;;36.05;;
52184;SDS011;38160;52.876;18.778;2022-09-27T00:21:46;58.28;;;36.00;;
52184;SDS011;38160;52.876;18.778;2022-09-27T00:24:20;45.90;;;33.92;;
52184;SDS011;38160;52.876;18.778;2022-09-27T00:26:52;47.00;;;32.75;;
52184;SDS011;38160;52.876;18.778;2022-09-27T00:29:24;48.20;;;32.23;;
52184;SDS011;38160;52.876;18.778;2022-09-27T00:31:56;40.43;;;30.52;;
52184;SDS011;38160;52.876;18.778;2022-09-27T00:34:28;40.33;;;30.95;;
52184;SDS011;38160;52.876;18.778;2022-09-27T00:37:00;38.78;;;30.10;;
52184;SDS011;38160;52.876;18.778;2022-09-27T00:39:32;40.58;;;30.68;;
52184;SDS011;38160;52.876;18.778;2022-09-27T00:42:04;46.85;;;34.73;;
52184;SDS011;38160;52.876;18.778;2022-09-27T00:50:14;71.17;;;39.88;;
52184;SDS011;38160;52.876;18.778;2022-09-27T00:56:07;67.35;;;40.05;;
52184;SDS011;38160;52.876;18.778;2022-09-27T01:02:06;90.47;;;41.05;;
52184;SDS011;38160;52.876;18.778;2022-09-27T01:04:42;145.40;;;41.00;;
52184;SDS011;38160;52.876;18.778;2022-09-27T01:07:15;91.15;;;41.30;;
52184;SDS011;38160;52.876;18.778;2022-09-27T01:09:47;134.40;;;41.13;;
52184;SDS011;38160;52.876;18.778;2022-09-27T01:12:22;123.72;;;42.33;;
52184;SDS011;38160;52.876;18.778;2022-09-27T01:26:46;116.35;;;35.88;;
52184;SDS011;38160;52.876;18.778;2022-09-27T01:33:01;124.85;;;36.30;;
52184;SDS011;38160;52.876;18.778;2022-09-27T01:42:07;124.38;;;36.98;;
52184;SDS011;38160;52.876;18.778;2022-09-27T01:45:03;113.70;;;36.13;;
52184;SDS011;38160;52.876;18.778;2022-09-27T01:47:40;122.40;;;36.48;;
52184;SDS011;38160;52.876;18.778;2022-09-27T01:50:21;157.43;;;36.13;;
52184;SDS011;38160;52.876;18.778;2022-09-27T01:53:04;97.17;;;36.60;;
52184;SDS011;38160;52.876;18.778;2022-09-27T01:55:57;95.12;;;36.98;;
52184;SDS011;38160;52.876;18.778;2022-09-27T01:59:21;138.37;;;36.38;;
52184;SDS011;38160;52.876;18.778;2022-09-27T02:01:16;151.47;;;36.80;;
52184;SDS011;38160;52.876;18.778;2022-09-27T02:03:51;117.28;;;37.45;;
52184;SDS011;38160;52.876;18.778;2022-09-27T02:06:44;138.00;;;37.45;;
52184;SDS011;38160;52.876;18.778;2022-09-27T02:12:24;99.80;;;39.15;;
52184;SDS011;38160;52.876;18.778;2022-09-27T02:15:03;134.12;;;40.65;;
52184;SDS011;38160;52.876;18.778;2022-09-27T02:17:50;97.00;;;41.80;;
52184;SDS011;38160;52.876;18.778;2022-09-27T02:20:37;108.83;;;43.90;;
52184;SDS011;38160;52.876;18.778;2022-09-27T02:29:03;111.20;;;42.30;;
52184;SDS011;38160;52.876;18.778;2022-09-27T02:31:42;96.28;;;42.20;;
52184;SDS011;38160;52.876;18.778;2022-09-27T02:34:27;84.95;;;40.85;;
52184;SDS011;38160;52.876;18.778;2022-09-27T02:37:01;77.08;;;40.12;;
52184;SDS011;38160;52.876;18.778;2022-09-27T02:39:33;142.82;;;39.03;;
52184;SDS011;38160;52.876;18.778;2022-09-27T02:42:06;110.00;;;37.90;;
52184;SDS011;38160;52.876;18.778;2022-09-27T02:44:38;106.97;;;36.55;;
52184;SDS011;38160;52.876;18.778;2022-09-27T02:50:17;68.92;;;34.55;;
52184;SDS011;38160;52.876;18.778;2022-09-27T03:02:08;112.97;;;33.48;;
52184;SDS011;38160;52.876;18.778;2022-09-27T03:04:54;71.12;;;33.05;;
52184;SDS011;38160;52.876;18.778;2022-09-27T03:07:30;85.80;;;34.48;;
52184;SDS011;38160;52.876;18.778;2022-09-27T03:10:03;108.92;;;35.05;;
52184;SDS011;38160;52.876;18.778;2022-09-27T03:12:36;86.37;;;34.25;;
52184;SDS011;38160;52.876;18.778;2022-09-27T03:15:08;81.78;;;33.38;;
52184;SDS011;38160;52.876;18.778;2022-09-27T03:17:58;74.20;;;30.75;;
52184;SDS011;38160;52.876;18.778;2022-09-27T03:20:48;71.15;;;31.40;;
52184;SDS011;38160;52.876;18.778;2022-09-27T03:23:26;67.50;;;30.32;;
52184;SDS011;38160;52.876;18.778;2022-09-27T03:25:58;61.15;;;28.73;;
52184;SDS011;38160;52.876;18.778;2022-09-27T03:28:30;61.20;;;29.18;;
52184;SDS011;38160;52.876;18.778;2022-09-27T03:31:02;54.20;;;27.82;;
52184;SDS011;38160;52.876;18.778;2022-09-27T03:33:48;42.17;;;27.75;;
52184;SDS011;38160;52.876;18.778;2022-09-27T03:36:20;64.12;;;31.60;;
52184;SDS011;38160;52.876;18.778;2022-09-27T03:38:51;59.63;;;31.17;;
52184;SDS011;38160;52.876;18.778;2022-09-27T03:41:24;81.30;;;31.37;;
52184;SDS011;38160;52.876;18.778;2022-09-27T03:43:56;59.60;;;30.48;;
52184;SDS011;38160;52.876;18.778;2022-09-27T03:46:29;55.00;;;31.97;;
52184;SDS011;38160;52.876;18.778;2022-09-27T03:49:01;61.10;;;30.12;;
52184;SDS011;38160;52.876;18.778;2022-09-27T03:51:32;62.05;;;29.27;;
52184;SDS011;38160;52.876;18.778;2022-09-27T03:54:04;43.05;;;29.92;;
52184;SDS011;38160;52.876;18.778;2022-09-27T03:56:36;56.45;;;29.15;;
52184;SDS011;38160;52.876;18.778;2022-09-27T03:59:08;68.57;;;28.20;;
52184;SDS011;38160;52.876;18.778;2022-09-27T04:01:41;57.05;;;28.62;;
52184;SDS011;38160;52.876;18.778;2022-09-27T04:04:16;60.45;;;28.25;;
52184;SDS011;38160;52.876;18.778;2022-09-27T04:06:48;67.00;;;28.27;;
52184;SDS011;38160;52.876;18.778;2022-09-27T04:09:20;68.83;;;29.12;;
52184;SDS011;38160;52.876;18.778;2022-09-27T04:12:02;66.20;;;27.55;;
52184;SDS011;38160;52.876;18.778;2022-09-27T04:14:36;83.03;;;27.55;;
52184;SDS011;38160;52.876;18.778;2022-09-27T04:17:12;88.27;;;24.77;;
52184;SDS011;38160;52.876;18.778;2022-09-27T04:19:49;57.70;;;25.55;;
52184;SDS011;38160;52.876;18.778;2022-09-27T04:22:21;91.60;;;24.92;;
52184;SDS011;38160;52.876;18.778;2022-09-27T04:24:53;52.65;;;24.52;;
52184;SDS011;38160;52.876;18.778;2022-09-27T04:27:28;45.70;;;23.80;;
52184;SDS011;38160;52.876;18.778;2022-09-27T04:30:04;51.90;;;25.00;;
52184;SDS011;38160;52.876;18.778;2022-09-27T04:32:48;49.75;;;22.55;;
52184;SDS011;38160;52.876;18.778;2022-09-27T04:36:05;33.90;;;23.15;;
52184;SDS011;38160;52.876;18.778;2022-09-27T04:39:05;32.78;;;21.40;;
52184;SDS011;38160;52.876;18.778;2022-09-27T04:41:40;37.50;;;22.35;;
52184;SDS011;38160;52.876;18.778;2022-09-27T04:44:13;46.70;;;21.70;;
52184;SDS011;38160;52.876;18.778;2022-09-27T04:49:38;38.10;;;21.57;;
52184;SDS011;38160;52.876;18.778;2022-09-27T04:52:09;35.08;;;22.58;;
52184;SDS011;38160;52.876;18.778;2022-09-27T04:54:42;34.38;;;22.17;;
52184;SDS011;38160;52.876;18.778;2022-09-27T05:00:25;30.55;;;20.77;;
52184;SDS011;38160;52.876;18.778;2022-09-27T05:03:00;44.35;;;20.12;;
52184;SDS011;38160;52.876;18.778;2022-09-27T05:05:43;54.00;;;21.17;;
52184;SDS011;38160;52.876;18.778;2022-09-27T05:08:15;43.20;;;20.00;;
52184;SDS011;38160;52.876;18.778;2022-09-27T05:10:52;35.00;;;21.85;;
52184;SDS011;38160;52.876;18.778;2022-09-27T05:13:25;57.88;;;21.25;;
52184;SDS011;38160;52.876;18.778;2022-09-27T05:16:01;36.70;;;20.25;;
52184;SDS011;38160;52.876;18.778;2022-09-27T05:18:38;34.43;;;20.35;;
52184;SDS011;38160;52.876;18.778;2022-09-27T05:21:28;33.70;;;20.88;;
52184;SDS011;38160;52.876;18.778;2022-09-27T05:24:01;44.35;;;20.57;;
52184;SDS011;38160;52.876;18.778;2022-09-27T05:36:19;39.40;;;20.17;;
52184;SDS011;38160;52.876;18.778;2022-09-27T05:38:58;46.48;;;20.72;;
52184;SDS011;38160;52.876;18.778;2022-09-27T05:41:31;45.03;;;20.97;;
52184;SDS011;38160;52.876;18.778;2022-09-27T05:44:08;51.35;;;21.80;;
52184;SDS011;38160;52.876;18.778;2022-09-27T05:46:41;47.98;;;20.20;;
52184;SDS011;38160;52.876;18.778;2022-09-27T05:49:13;59.40;;;19.90;;
52184;SDS011;38160;52.876;18.778;2022-09-27T05:51:45;65.12;;;20.97;;
52184;SDS011;38160;52.876;18.778;2022-09-27T05:54:17;59.25;;;18.00;;
52184;SDS011;38160;52.876;18.778;2022-09-27T05:56:49;53.08;;;17.98;;
52184;SDS011;38160;52.876;18.778;2022-09-27T05:59:37;60.30;;;18.02;;
52184;SDS011;38160;52.876;18.778;2022-09-27T06:02:25;45.17;;;18.48;;
52184;SDS011;38160;52.876;18.778;2022-09-27T06:05:15;53.80;;;19.12;;
52184;SDS011;38160;52.876;18.778;2022-09-27T06:08:03;62.78;;;18.05;;
52184;SDS011;38160;52.876;18.778;2022-09-27T06:10:41;46.63;;;19.82;;
52184;SDS011;38160;52.876;18.778;2022-09-27T06:13:14;58.75;;;19.87;;
52184;SDS011;38160;52.876;18.778;2022-09-27T06:15:47;46.88;;;19.73;;
52184;SDS011;38160;52.876;18.778;2022-09-27T06:21:32;157.22;;;25.05;;
52184;SDS011;38160;52.876;18.778;2022-09-27T06:24:37;72.58;;;23.25;;
52184;SDS011;38160;52.876;18.778;2022-09-27T06:27:15;67.17;;;21.00;;
52184;SDS011;38160;52.876;18.778;2022-09-27T06:29:56;40.73;;;18.25;;
52184;SDS011;38160;52.876;18.778;2022-09-27T06:32:54;47.50;;;19.40;;
52184;SDS011;38160;52.876;18.778;2022-09-27T06:35:30;55.70;;;20.80;;
52184;SDS011;38160;52.876;18.778;2022-09-27T06:38:05;51.55;;;18.85;;
52184;SDS011;38160;52.876;18.778;2022-09-27T06:40:43;36.28;;;18.92;;
52184;SDS011;38160;52.876;18.778;2022-09-27T06:43:26;48.48;;;17.67;;
52184;SDS011;38160;52.876;18.778;2022-09-27T06:46:18;57.90;;;17.48;;
52184;SDS011;38160;52.876;18.778;2022-09-27T06:49:04;49.35;;;18.77;;
52184;SDS011;38160;52.876;18.778;2022-09-27T06:51:42;26.27;;;16.23;;
52184;SDS011;38160;52.876;18.778;2022-09-27T06:54:54;38.92;;;16.65;;
52184;SDS011;38160;52.876;18.778;2022-09-27T06:57:34;38.50;;;19.42;;
52184;SDS011;38160;52.876;18.778;2022-09-27T07:00:45;30.20;;;17.82;;
52184;SDS011;38160;52.876;18.778;2022-09-27T07:03:58;30.65;;;18.12;;
52184;SDS011;38160;52.876;18.778;2022-09-27T07:06:49;32.98;;;17.85;;
52184;SDS011;38160;52.876;18.778;2022-09-27T07:12:38;32.63;;;18.45;;
52184;SDS011;38160;52.876;18.778;2022-09-27T07:19:28;25.62;;;18.23;;
52184;SDS011;38160;52.876;18.778;2022-09-27T07:22:23;21.57;;;15.28;;
52184;SDS011;38160;52.876;18.778;2022-09-27T07:25:32;26.10;;;17.25;;
52184;SDS011;38160;52.876;18.778;2022-09-27T07:31:32;28.02;;;17.87;;
52184;SDS011;38160;52.876;18.778;2022-09-27T07:34:20;31.25;;;18.67;;
52184;SDS011;38160;52.876;18.778;2022-09-27T07:42:38;26.68;;;16.67;;
52184;SDS011;38160;52.876;18.778;2022-09-27T07:45:18;39.13;;;16.90;;
52184;SDS011;38160;52.876;18.778;2022-09-27T07:51:20;27.45;;;16.97;;
52184;SDS011;38160;52.876;18.778;2022-09-27T07:54:00;28.12;;;14.98;;
52184;SDS011;38160;52.876;18.778;2022-09-27T07:56:49;34.23;;;16.42;;
52184;SDS011;38160;52.876;18.778;2022-09-27T07:59:25;27.73;;;16.23;;
52184;SDS011;38160;52.876;18.778;2022-09-27T08:04:45;35.45;;;18.75;;
52184;SDS011;38160;52.876;18.778;2022-09-27T08:07:17;28.87;;;18.23;;
52184;SDS011;38160;52.876;18.778;2022-09-27T08:09:59;27.20;;;18.60;;
52184;SDS011;38160;52.876;18.778;2022-09-27T08:12:45;30.62;;;17.52;;
52184;SDS011;38160;52.876;18.778;2022-09-27T08:15:28;31.17;;;19.25;;
52184;SDS011;38160;52.876;18.778;2022-09-27T08:18:05;35.23;;;19.45;;
52184;SDS011;38160;52.876;18.778;2022-09-27T08:21:04;29.92;;;17.05;;
52184;SDS011;38160;52.876;18.778;2022-09-27T08:23:38;23.70;;;15.58;;
52184;SDS011;38160;52.876;18.778;2022-09-27T08:48:52;20.55;;;16.00;;
52184;SDS011;38160;52.876;18.778;2022-09-27T08:51:20;25.12;;;16.67;;
52184;SDS011;38160;52.876;18.778;2022-09-27T08:57:02;21.93;;;15.53;;
52184;SDS011;38160;52.876;18.778;2022-09-27T09:00:00;23.10;;;14.47;;
52184;SDS011;38160;52.876;18.778;2022-09-27T09:02:35;31.97;;;16.77;;
52184;SDS011;38160;52.876;18.778;2022-09-27T09:05:11;23.32;;;16.12;;
52184;SDS011;38160;52.876;18.778;2022-09-27T09:08:23;24.45;;;15.38;;
52184;SDS011;38160;52.876;18.778;2022-09-27T09:14:41;29.55;;;17.25;;
52184;SDS011;38160;52.876;18.778;2022-09-27T09:20:54;29.80;;;18.50;;
52184;SDS011;38160;52.876;18.778;2022-09-27T09:23:41;24.82;;;17.50;;
52184;SDS011;38160;52.876;18.778;2022-09-27T09:29:27;30.40;;;16.32;;
52184;SDS011;38160;52.876;18.778;2022-09-27T09:32:24;31.55;;;17.95;;
52184;SDS011;38160;52.876;18.778;2022-09-27T09:35:11;27.17;;;18.27;;
52184;SDS011;38160;52.876;18.778;2022-09-27T09:37:56;22.98;;;15.08;;
52184;SDS011;38160;52.876;18.778;2022-09-27T09:40:46;29.20;;;16.62;;
52184;SDS011;38160;52.876;18.778;2022-09-27T09:43:36;23.00;;;14.63;;
52184;SDS011;38160;52.876;18.778;2022-09-27T09:49:33;27.58;;;17.50;;
52184;SDS011;38160;52.876;18.778;2022-09-27T09:52:16;32.10;;;16.75;;
52184;SDS011;38160;52.876;18.778;2022-09-27T10:01:49;39.00;;;18.62;;
52184;SDS011;38160;52.876;18.778;2022-09-27T10:04:26;28.77;;;19.07;;
52184;SDS011;38160;52.876;18.778;2022-09-27T10:07:35;25.80;;;17.12;;
52184;SDS011;38160;52.876;18.778;2022-09-27T10:13:31;30.88;;;19.77;;
52184;SDS011;38160;52.876;18.778;2022-09-27T10:19:54;31.00;;;19.67;;
52184;SDS011;38160;52.876;18.778;2022-09-27T10:26:39;30.37;;;19.60;;
52184;SDS011;38160;52.876;18.778;2022-09-27T10:29:14;29.92;;;19.50;;
52184;SDS011;38160;52.876;18.778;2022-09-27T10:31:50;29.05;;;20.17;;
52184;SDS011;38160;52.876;18.778;2022-09-27T10:34:37;30.57;;;21.42;;
52184;SDS011;38160;52.876;18.778;2022-09-27T10:39:59;30.48;;;19.82;;
52184;SDS011;38160;52.876;18.778;2022-09-27T10:42:32;29.48;;;20.82;;
52184;SDS011;38160;52.876;18.778;2022-09-27T10:45:21;28.65;;;19.10;;
52184;SDS011;38160;52.876;18.778;2022-09-27T10:48:17;30.43;;;19.07;;
52184;SDS011;38160;52.876;18.778;2022-09-27T10:51:04;29.77;;;18.85;;
52184;SDS011;38160;52.876;18.778;2022-09-27T10:53:46;26.12;;;18.17;;
52184;SDS011;38160;52.876;18.778;2022-09-27T10:56:25;33.53;;;18.05;;
52184;SDS011;38160;52.876;18.778;2022-09-27T10:59:17;30.12;;;18.45;;
52184;SDS011;38160;52.876;18.778;2022-09-27T11:01:53;31.10;;;18.52;;
52184;SDS011;38160;52.876;18.778;2022-09-27T11:04:31;35.60;;;19.12;;
52184;SDS011;38160;52.876;18.778;2022-09-27T11:07:14;26.90;;;17.50;;
52184;SDS011;38160;52.876;18.778;2022-09-27T11:16:00;29.20;;;17.50;;
52184;SDS011;38160;52.876;18.778;2022-09-27T11:22:02;24.15;;;18.07;;
52184;SDS011;38160;52.876;18.778;2022-09-27T11:43:34;28.87;;;18.98;;
52184;SDS011;38160;52.876;18.778;2022-09-27T11:46:16;27.93;;;19.77;;
52184;SDS011;38160;52.876;18.778;2022-09-27T12:02:21;28.55;;;19.52;;
52184;SDS011;38160;52.876;18.778;2022-09-27T12:05:03;27.52;;;18.73;;
52184;SDS011;38160;52.876;18.778;2022-09-27T12:08:11;27.95;;;19.12;;
52184;SDS011;38160;52.876;18.778;2022-09-27T12:14:15;33.48;;;21.80;;
52184;SDS011;38160;52.876;18.778;2022-09-27T12:25:49;30.65;;;20.45;;
52184;SDS011;38160;52.876;18.778;2022-09-27T12:28:36;33.92;;;20.43;;
52184;SDS011;38160;52.876;18.778;2022-09-27T12:31:21;28.85;;;21.25;;
52184;SDS011;38160;52.876;18.778;2022-09-27T12:34:03;32.28;;;21.75;;
52184;SDS011;38160;52.876;18.778;2022-09-27T12:37:15;36.42;;;22.10;;
52184;SDS011;38160;52.876;18.778;2022-09-27T12:40:58;31.35;;;21.65;;
52184;SDS011;38160;52.876;18.778;2022-09-27T12:43:03;27.05;;;20.68;;
52184;SDS011;38160;52.876;18.778;2022-09-27T12:51:50;31.50;;;20.77;;
52184;SDS011;38160;52.876;18.778;2022-09-27T12:54:30;42.30;;;20.05;;
52184;SDS011;38160;52.876;18.778;2022-09-27T12:57:22;28.50;;;20.00;;
52184;SDS011;38160;52.876;18.778;2022-09-27T13:00:18;29.92;;;18.75;;
52184;SDS011;38160;52.876;18.778;2022-09-27T13:26:41;26.17;;;16.93;;
52184;SDS011;38160;52.876;18.778;2022-09-27T13:29:30;30.17;;;16.20;;
52184;SDS011;38160;52.876;18.778;2022-09-27T13:34:40;33.05;;;15.50;;
52184;SDS011;38160;52.876;18.778;2022-09-27T13:37:44;24.35;;;16.85;;
52184;SDS011;38160;52.876;18.778;2022-09-27T13:40:21;31.82;;;18.25;;
52184;SDS011;38160;52.876;18.778;2022-09-27T13:46:00;39.38;;;22.73;;
52184;SDS011;38160;52.876;18.778;2022-09-27T13:51:53;22.87;;;15.98;;
52184;SDS011;38160;52.876;18.778;2022-09-27T14:01:46;22.98;;;15.65;;
52184;SDS011;38160;52.876;18.778;2022-09-27T14:07:54;23.95;;;15.23;;
52184;SDS011;38160;52.876;18.778;2022-09-27T14:10:30;25.65;;;15.93;;
52184;SDS011;38160;52.876;18.778;2022-09-27T14:13:03;24.37;;;15.90;;
52184;SDS011;38160;52.876;18.778;2022-09-27T14:18:10;19.52;;;14.40;;
52184;SDS011;38160;52.876;18.778;2022-09-27T14:20:45;20.12;;;14.70;;
52184;SDS011;38160;52.876;18.778;2022-09-27T14:23:25;27.60;;;15.03;;
52184;SDS011;38160;52.876;18.778;2022-09-27T14:25:58;28.92;;;14.83;;
52184;SDS011;38160;52.876;18.778;2022-09-27T14:28:39;26.07;;;14.58;;
52184;SDS011;38160;52.876;18.778;2022-09-27T14:31:13;29.50;;;15.25;;
52184;SDS011;38160;52.876;18.778;2022-09-27T14:33:56;31.90;;;14.70;;
52184;SDS011;38160;52.876;18.778;2022-09-27T14:36:38;30.40;;;14.80;;
52184;SDS011;38160;52.876;18.778;2022-09-27T14:39:33;28.27;;;14.93;;
52184;SDS011;38160;52.876;18.778;2022-09-27T14:42:20;23.47;;;13.90;;
52184;SDS011;38160;52.876;18.778;2022-09-27T14:45:04;33.73;;;14.68;;
52184;SDS011;38160;52.876;18.778;2022-09-27T14:48:02;24.02;;;14.53;;
52184;SDS011;38160;52.876;18.778;2022-09-27T14:50:56;23.77;;;13.35;;
52184;SDS011;38160;52.876;18.778;2022-09-27T14:56:36;21.35;;;13.88;;
52184;SDS011;38160;52.876;18.778;2022-09-27T14:59:15;30.82;;;15.15;;
52184;SDS011;38160;52.876;18.778;2022-09-27T15:01:52;18.90;;;13.85;;
52184;SDS011;38160;52.876;18.778;2022-09-27T15:04:28;22.35;;;13.98;;
52184;SDS011;38160;52.876;18.778;2022-09-27T15:07:06;27.15;;;14.05;;
52184;SDS011;38160;52.876;18.778;2022-09-27T15:12:40;46.33;;;38.48;;
52184;SDS011;38160;52.876;18.778;2022-09-27T15:15:17;31.23;;;16.95;;
52184;SDS011;38160;52.876;18.778;2022-09-27T15:21:44;52.48;;;36.30;;
52184;SDS011;38160;52.876;18.778;2022-09-27T15:28:28;28.38;;;17.35;;
52184;SDS011;38160;52.876;18.778;2022-09-27T15:31:30;43.28;;;34.05;;
52184;SDS011;38160;52.876;18.778;2022-09-27T15:41:31;25.02;;;18.65;;
52184;SDS011;38160;52.876;18.778;2022-09-27T15:47:52;39.90;;;29.80;;
52184;SDS011;38160;52.876;18.778;2022-09-27T16:49:09;8.35;;;4.28;;
52184;SDS011;38160;52.876;18.778;2022-09-27T16:51:50;9.43;;;4.53;;
52184;SDS011;38160;52.876;18.778;2022-09-27T16:58:07;10.45;;;6.03;;
52184;SDS011;38160;52.876;18.778;2022-09-27T17:00:39;11.78;;;5.65;;
52184;SDS011;38160;52.876;18.778;2022-09-27T17:03:14;11.65;;;5.62;;
52184;SDS011;38160;52.876;18.778;2022-09-27T17:05:46;11.35;;;6.03;;
52184;SDS011;38160;52.876;18.778;2022-09-27T17:08:32;9.45;;;5.00;;
52184;SDS011;38160;52.876;18.778;2022-09-27T17:11:04;11.40;;;5.05;;
52184;SDS011;38160;52.876;18.778;2022-09-27T17:13:45;10.35;;;5.60;;
52184;SDS011;38160;52.876;18.778;2022-09-27T17:16:42;19.32;;;8.10;;
52184;SDS011;38160;52.876;18.778;2022-09-27T17:19:52;25.10;;;10.38;;
52184;SDS011;38160;52.876;18.778;2022-09-27T17:22:31;12.73;;;5.87;;
52184;SDS011;38160;52.876;18.778;2022-09-27T17:25:05;19.00;;;5.80;;
52184;SDS011;38160;52.876;18.778;2022-09-27T17:27:37;33.28;;;15.58;;
52184;SDS011;38160;52.876;18.778;2022-09-27T17:30:18;29.90;;;14.38;;
52184;SDS011;38160;52.876;18.778;2022-09-27T17:42:53;16.17;;;9.18;;
52184;SDS011;38160;52.876;18.778;2022-09-27T17:48:26;11.83;;;7.42;;
52184;SDS011;38160;52.876;18.778;2022-09-27T17:54:31;18.87;;;9.75;;
52184;SDS011;38160;52.876;18.778;2022-09-27T17:57:07;14.20;;;8.68;;
52184;SDS011;38160;52.876;18.778;2022-09-27T17:59:40;11.33;;;6.05;;
52184;SDS011;38160;52.876;18.778;2022-09-27T18:02:14;9.18;;;5.40;;
52184;SDS011;38160;52.876;18.778;2022-09-27T18:04:47;11.35;;;5.72;;
52184;SDS011;38160;52.876;18.778;2022-09-27T18:07:19;14.05;;;5.75;;
52184;SDS011;38160;52.876;18.778;2022-09-27T18:09:51;10.72;;;5.83;;
52184;SDS011;38160;52.876;18.778;2022-09-27T18:12:22;14.35;;;8.80;;
52184;SDS011;38160;52.876;18.778;2022-09-27T18:14:59;21.85;;;13.32;;
52184;SDS011;38160;52.876;18.778;2022-09-27T18:17:33;18.90;;;12.23;;
52184;SDS011;38160;52.876;18.778;2022-09-27T18:20:06;19.80;;;12.68;;
52184;SDS011;38160;52.876;18.778;2022-09-27T18:22:38;15.23;;;9.25;;
52184;SDS011;38160;52.876;18.778;2022-09-27T18:25:10;12.13;;;8.03;;
52184;SDS011;38160;52.876;18.778;2022-09-27T18:27:47;14.80;;;8.88;;
52184;SDS011;38160;52.876;18.778;2022-09-27T18:30:24;17.48;;;8.93;;
52184;SDS011;38160;52.876;18.778;2022-09-27T18:32:56;18.15;;;8.90;;
52184;SDS011;38160;52.876;18.778;2022-09-27T18:35:36;15.43;;;8.98;;
52184;SDS011;38160;52.876;18.778;2022-09-27T18:38:16;16.90;;;9.08;;
52184;SDS011;38160;52.876;18.778;2022-09-27T18:40:48;15.00;;;8.55;;
52184;SDS011;38160;52.876;18.778;2022-09-27T18:43:22;17.48;;;9.70;;
52184;SDS011;38160;52.876;18.778;2022-09-27T18:45:58;15.90;;;9.73;;
52184;SDS011;38160;52.876;18.778;2022-09-27T18:48:36;13.65;;;9.20;;
52184;SDS011;38160;52.876;18.778;2022-09-27T18:51:11;18.45;;;9.78;;
52184;SDS011;38160;52.876;18.778;2022-09-27T18:53:44;15.58;;;9.48;;
52184;SDS011;38160;52.876;18.778;2022-09-27T18:56:17;17.67;;;10.10;;
52184;SDS011;38160;52.876;18.778;2022-09-27T18:58:49;18.02;;;10.95;;
52184;SDS011;38160;52.876;18.778;2022-09-27T19:01:22;18.40;;;11.43;;
52184;SDS011;38160;52.876;18.778;2022-09-27T19:03:57;17.70;;;10.48;;
52184;SDS011;38160;52.876;18.778;2022-09-27T19:13:35;16.07;;;9.90;;
52184;SDS011;38160;52.876;18.778;2022-09-27T19:16:09;17.27;;;9.63;;
52184;SDS011;38160;52.876;18.778;2022-09-27T19:18:42;16.23;;;8.38;;
52184;SDS011;38160;52.876;18.778;2022-09-27T19:21:22;15.10;;;8.45;;
52184;SDS011;38160;52.876;18.778;2022-09-27T19:24:00;14.20;;;7.10;;
52184;SDS011;38160;52.876;18.778;2022-09-27T19:26:32;11.70;;;6.35;;
52184;SDS011;38160;52.876;18.778;2022-09-27T19:29:04;14.78;;;6.78;;
52184;SDS011;38160;52.876;18.778;2022-09-27T19:31:36;10.72;;;6.33;;
52184;SDS011;38160;52.876;18.778;2022-09-27T19:34:07;10.28;;;5.30;;
52184;SDS011;38160;52.876;18.778;2022-09-27T19:36:40;11.70;;;5.95;;
52184;SDS011;38160;52.876;18.778;2022-09-27T19:39:12;11.35;;;5.75;;
52184;SDS011;38160;52.876;18.778;2022-09-27T19:41:43;11.68;;;5.80;;
52184;SDS011;38160;52.876;18.778;2022-09-27T19:44:15;12.78;;;5.53;;
52184;SDS011;38160;52.876;18.778;2022-09-27T19:46:48;10.75;;;5.62;;
52184;SDS011;38160;52.876;18.778;2022-09-27T19:49:20;12.13;;;5.20;;
52184;SDS011;38160;52.876;18.778;2022-09-27T19:51:51;9.70;;;5.12;;
52184;SDS011;38160;52.876;18.778;2022-09-27T19:54:23;9.28;;;5.15;;
52184;SDS011;38160;52.876;18.778;2022-09-27T19:56:55;9.55;;;4.90;;
52184;SDS011;38160;52.876;18.778;2022-09-27T19:59:27;10.82;;;4.80;;
52184;SDS011;38160;52.876;18.778;2022-09-27T20:01:59;11.93;;;6.25;;
52184;SDS011;38160;52.876;18.778;2022-09-27T20:04:31;16.05;;;7.97;;
52184;SDS011;38160;52.876;18.778;2022-09-27T20:07:02;18.75;;;10.53;;
52184;SDS011;38160;52.876;18.778;2022-09-27T20:09:34;30.65;;;18.87;;
52184;SDS011;38160;52.876;18.778;2022-09-27T20:12:08;34.03;;;19.32;;
52184;SDS011;38160;52.876;18.778;2022-09-27T20:14:40;24.23;;;13.32;;
52184;SDS011;38160;52.876;18.778;2022-09-27T20:17:13;19.95;;;10.10;;
52184;SDS011;38160;52.876;18.778;2022-09-27T20:19:45;15.60;;;8.78;;
52184;SDS011;38160;52.876;18.778;2022-09-27T20:22:16;15.70;;;9.08;;
52184;SDS011;38160;52.876;18.778;2022-09-27T20:24:48;22.05;;;11.35;;
52184;SDS011;38160;52.876;18.778;2022-09-27T20:27:20;17.90;;;10.35;;
52184;SDS011;38160;52.876;18.778;2022-09-27T20:29:51;9.48;;;5.95;;
52184;SDS011;38160;52.876;18.778;2022-09-27T20:32:23;12.80;;;7.78;;
52184;SDS011;38160;52.876;18.778;2022-09-27T20:34:55;14.05;;;7.28;;
52184;SDS011;38160;52.876;18.778;2022-09-27T20:37:26;12.53;;;8.78;;
52184;SDS011;38160;52.876;18.778;2022-09-27T21:24:55;10.18;;;5.78;;
52184;SDS011;38160;52.876;18.778;2022-09-27T21:52:20;10.43;;;6.25;;
52184;SDS011;38160;52.876;18.778;2022-09-27T22:13:51;10.72;;;6.95;;
52184;SDS011;38160;52.876;18.778;2022-09-27T23:46:55;12.82;;;8.58;;
52184;SDS011;38160;52.876;18.778;2022-09-27T23:49:32;11.78;;;8.93;;
52184;SDS011;38160;52.876;18.778;2022-09-27T23:52:04;14.25;;;9.63;;
52184;SDS011;38160;52.876;18.778;2022-09-27T23:54:36;13.93;;;8.93;;
52184;SDS011;38160;52.876;18.778;2022-09-27T23:57:08;14.58;;;9.25;;
52184;SDS011;38160;52.876;18.778;2022-09-27T23:59:40;14.33;;;9.15;;
